Time;durP1;ratioP1;P1;durP2;ratioP2;P2;SDS_P1;SDS_P2;PMS_P1;PMS_P2;Temp;Humidity;BMP_temperature;BMP_pressure;BME280_temperature;BME280_humidity;BME280_pressure;Samples;Min_cycle;Max_cycle;Signal;HPM_P1;HPM_P2
2023/07/11 00:00:25;;;;;;;0.65;0.65;;;;;;;21.73;100.00;99981.72;6073538;23;20021;-95
2023/07/11 00:02:52;;;;;;;0.40;0.38;;;;;;;21.92;100.00;100024.31;6070173;23;20033;-95
2023/07/11 00:05:18;;;;;;;1.35;1.25;;;;;;;21.75;100.00;100009.47;6094207;23;20088;-95
2023/07/11 00:07:44;;;;;;;2.55;1.17;;;;;;;21.75;100.00;99995.34;6093242;23;20636;-95
2023/07/11 00:10:12;;;;;;;0.95;0.90;;;;;;;21.84;100.00;100024.06;6044447;23;20025;-96
2023/07/11 00:12:38;;;;;;;1.33;0.95;;;;;;;21.69;100.00;99998.16;6048020;23;20012;-94
2023/07/11 00:15:06;;;;;;;1.45;1.20;;;;;;;21.76;100.00;100002.50;6070216;23;20108;-94
2023/07/11 00:17:31;;;;;;;1.65;1.38;;;;;;;21.62;100.00;100000.72;6070403;23;20021;-95
2023/07/11 00:19:58;;;;;;;1.02;1.02;;;;;;;21.50;100.00;99983.03;6069773;23;20467;-96
2023/07/11 00:22:29;;;;;;;2.35;1.55;;;;;;;21.68;100.00;100004.31;6046515;23;20006;-95
2023/07/11 00:24:55;;;;;;;0.95;0.90;;;;;;;21.70;100.00;100004.56;6069112;23;20048;-95
2023/07/11 00:27:21;;;;;;;0.10;0.10;;;;;;;21.63;100.00;99991.00;6069910;23;20010;-95
2023/07/11 00:29:47;;;;;;;0.93;0.93;;;;;;;21.82;100.00;100015.34;6092796;23;20392;-94
2023/07/11 00:32:13;;;;;;;1.23;0.90;;;;;;;21.59;100.00;99956.63;6069814;23;20010;-96
2023/07/11 00:34:39;;;;;;;1.02;1.00;;;;;;;21.62;100.00;99966.88;6069881;23;20389;-95
2023/07/11 00:37:04;;;;;;;1.77;0.85;;;;;;;21.63;100.00;99983.28;6093133;23;20005;-95
2023/07/11 00:39:32;;;;;;;1.05;0.80;;;;;;;21.64;100.00;99996.09;6070109;23;20069;-96
2023/07/11 00:41:58;;;;;;;1.27;0.85;;;;;;;21.44;100.00;99967.38;6075124;23;20045;-96
2023/07/11 00:44:24;;;;;;;1.60;1.20;;;;;;;21.48;100.00;99970.72;6075598;23;20014;-96
2023/07/11 00:46:50;;;;;;;2.55;1.83;;;;;;;21.44;100.00;99968.16;6051490;23;20057;-96
2023/07/11 00:49:18;;;;;;;1.50;1.13;;;;;;;21.46;100.00;99982.53;6052711;23;20021;-95
2023/07/11 00:51:51;;;;;;;0.75;0.75;;;;;;;21.32;100.00;99975.06;6075555;23;20048;-95
2023/07/11 00:54:19;;;;;;;1.42;1.33;;;;;;;21.12;100.00;99969.69;6053812;23;20456;-96
2023/07/11 00:56:46;;;;;;;1.20;1.10;;;;;;;21.25;100.00;99976.38;6077683;23;20002;-96
2023/07/11 00:59:14;;;;;;;0.55;0.55;;;;;;;21.10;100.00;99956.06;6056372;23;20101;-96
2023/07/11 01:04:21;;;;;;;1.85;1.20;;;;;;;21.11;100.00;99959.66;6147797;23;20033;-88
2023/07/11 01:06:46;;;;;;;0.65;0.65;;;;;;;21.35;100.00;99997.38;6121948;23;20009;-88
2023/07/11 01:09:12;;;;;;;0.60;0.60;;;;;;;21.20;100.00;99982.00;6099723;23;20005;-90
2023/07/11 01:11:56;;;;;;;1.45;1.35;;;;;;;21.23;100.00;99998.66;6126661;23;20021;-88
2023/07/11 01:14:23;;;;;;;1.30;1.15;;;;;;;21.09;100.00;99988.38;6126589;23;20023;-88
2023/07/11 01:16:48;;;;;;;1.27;1.17;;;;;;;20.95;100.00;99972.44;6076611;23;20009;-88
2023/07/11 01:19:14;;;;;;;0.55;0.55;;;;;;;21.03;100.00;99995.28;6151897;23;20024;-89
2023/07/11 01:21:40;;;;;;;0.35;0.35;;;;;;;20.98;100.00;99988.38;6125057;23;20450;-90
2023/07/11 01:24:05;;;;;;;0.52;0.52;;;;;;;21.05;100.00;99993.50;6101554;23;20108;-91
2023/07/11 01:26:31;;;;;;;2.42;1.48;;;;;;;20.91;100.00;99955.78;6125775;23;20017;-91
2023/07/11 01:28:56;;;;;;;0.95;0.90;;;;;;;21.03;100.00;99978.38;6101194;23;20087;-90
2023/07/11 01:31:22;;;;;;;1.23;1.15;;;;;;;21.08;100.00;99991.69;6101291;23;20025;-89
2023/07/11 01:33:48;;;;;;;1.45;0.70;;;;;;;21.07;100.00;99979.63;6125246;23;20040;-89
2023/07/11 01:36:14;;;;;;;0.65;0.57;;;;;;;21.03;100.00;99965.03;6126018;23;20017;-90
2023/07/11 01:38:40;;;;;;;2.28;1.55;;;;;;;20.95;100.00;99967.56;6100581;23;20021;-89
2023/07/11 01:41:08;;;;;;;2.13;1.50;;;;;;;20.98;100.00;99965.81;6100456;23;20080;-90
2023/07/11 01:43:34;;;;;;;0.98;0.82;;;;;;;20.87;100.00;99957.31;6101386;23;20013;-90
2023/07/11 01:46:00;;;;;;;2.92;1.35;;;;;;;21.00;100.00;99963.22;6125915;23;20009;-90
2023/07/11 01:48:28;;;;;;;1.15;1.05;;;;;;;21.04;100.00;99962.97;6150063;23;20114;-90
2023/07/11 01:50:54;;;;;;;0.95;0.90;;;;;;;21.00;100.00;99945.53;6124920;23;20008;-90
2023/07/11 01:53:20;;;;;;;0.40;0.35;;;;;;;21.13;100.00;99949.44;6150693;23;20013;-90
2023/07/11 01:55:57;;;;;;;2.15;1.77;;;;;;;21.11;100.00;99937.84;6124608;23;20020;-90
2023/07/11 01:58:23;;;;;;;1.02;1.02;;;;;;;21.11;100.00;99937.84;6100611;23;20017;-90
2023/07/11 02:00:49;;;;;;;1.50;1.15;;;;;;;21.11;100.00;99932.22;6100215;23;20009;-89
2023/07/11 02:03:14;;;;;;;2.53;0.90;;;;;;;21.14;100.00;99948.16;6150077;23;20412;-90
2023/07/11 02:05:40;;;;;;;1.40;0.60;;;;;;;21.07;100.00;99951.44;6100958;23;20019;-90
2023/07/11 02:08:06;;;;;;;1.77;1.25;;;;;;;21.06;100.00;99940.69;6124709;23;20013;-90
2023/07/11 02:10:31;;;;;;;0.50;0.50;;;;;;;21.00;100.00;99940.66;6125402;23;20025;-91
2023/07/11 02:12:57;;;;;;;1.25;1.15;;;;;;;20.90;100.00;99926.06;6123797;23;20013;-89
2023/07/11 02:15:23;;;;;;;0.40;0.40;;;;;;;20.84;100.00;99935.78;6124591;23;20041;-89
2023/07/11 02:17:48;;;;;;;1.17;1.05;;;;;;;20.85;100.00;99951.41;6100095;23;20052;-90
2023/07/11 02:20:15;;;;;;;1.05;0.73;;;;;;;20.72;100.00;99925.75;6124016;23;20432;-90
2023/07/11 02:22:40;;;;;;;0.63;0.40;;;;;;;20.73;100.00;99947.03;6123092;23;20097;-90
2023/07/11 02:25:06;;;;;;;2.35;0.85;;;;;;;20.73;100.00;99932.94;6101393;23;20455;-89
2023/07/11 02:27:32;;;;;;;1.08;0.75;;;;;;;20.80;100.00;99938.06;6124647;23;20526;-89
2023/07/11 02:29:57;;;;;;;1.52;1.13;;;;;;;20.81;100.00;99950.91;6124799;23;20020;-90
2023/07/11 02:32:23;;;;;;;4.57;1.67;;;;;;;20.81;100.00;99956.53;6123939;23;20022;-89
2023/07/11 02:34:48;;;;;;;0.77;0.52;;;;;;;20.80;100.00;99960.63;6124579;23;20005;-89
2023/07/11 02:37:14;;;;;;;0.50;0.50;;;;;;;20.70;100.00;99956.53;6148817;23;20024;-90
2023/07/11 02:39:39;;;;;;;0.93;0.93;;;;;;;20.66;100.00;99950.38;6124944;23;20012;-90
2023/07/11 02:42:05;;;;;;;1.45;1.00;;;;;;;20.61;100.00;99959.56;6124728;23;20014;-90
2023/07/11 02:44:30;;;;;;;3.92;0.93;;;;;;;20.68;100.00;99975.97;6151183;23;20329;-90
2023/07/11 02:47:14;;;;;;;0.57;0.57;;;;;;;20.65;100.00;99977.00;6148262;23;20117;-89
2023/07/11 02:49:41;;;;;;;1.67;1.52;;;;;;;20.50;100.00;99954.69;6123921;23;20023;-90
2023/07/11 02:52:07;;;;;;;1.13;1.00;;;;;;;20.60;100.00;99978.53;6123939;23;20091;-90
2023/07/11 02:54:33;;;;;;;0.68;0.68;;;;;;;20.62;100.00;99994.94;6150941;23;20040;-90
2023/07/11 02:56:59;;;;;;;1.85;1.45;;;;;;;20.58;100.00;99988.78;6124857;23;20085;-89
2023/07/11 02:59:24;;;;;;;4.97;1.35;;;;;;;20.51;100.00;99972.31;6099837;23;20013;-90
2023/07/11 03:01:50;;;;;;;3.47;2.15;;;;;;;20.61;100.00;99993.38;6149749;23;20014;-90
2023/07/11 03:04:15;;;;;;;2.05;1.08;;;;;;;20.63;100.00;99979.53;6149955;23;20348;-89
2023/07/11 03:06:41;;;;;;;1.45;1.30;;;;;;;20.54;100.00;99993.88;6099056;23;20025;-90
2023/07/11 03:09:06;;;;;;;3.80;1.58;;;;;;;20.61;100.00;100013.88;6148976;23;20033;-90
2023/07/11 03:11:32;;;;;;;0.77;0.77;;;;;;;20.60;100.00;100003.09;6124944;23;20036;-90
2023/07/11 03:13:57;;;;;;;1.90;0.98;;;;;;;20.55;100.00;99995.41;6126158;23;20496;-90
2023/07/11 03:16:23;;;;;;;1.42;0.93;;;;;;;20.53;100.00;99993.09;6155418;23;20021;-90
2023/07/11 03:18:48;;;;;;;2.30;1.85;;;;;;;20.58;100.00;100006.44;6133679;23;20016;-90
2023/07/11 03:21:14;;;;;;;0.85;0.68;;;;;;;20.56;100.00;100006.16;6099798;23;20021;-90
2023/07/11 03:23:39;;;;;;;1.27;1.13;;;;;;;20.60;100.00;100009.53;6124390;23;20013;-90
2023/07/11 03:26:05;;;;;;;1.27;1.17;;;;;;;20.59;100.00;100007.19;6124254;23;20363;-90
2023/07/11 03:28:30;;;;;;;1.60;1.23;;;;;;;20.46;100.00;100013.31;6099723;23;20766;-90
2023/07/11 03:30:56;;;;;;;0.90;0.68;;;;;;;20.57;100.00;100027.44;6151271;23;20021;-90
2023/07/11 03:33:21;;;;;;;0.55;0.45;;;;;;;20.51;100.00;100017.41;6123393;23;20017;-90
2023/07/11 03:35:51;;;;;;;1.52;1.20;;;;;;;20.40;100.00;100010.47;6123461;23;20117;-90
2023/07/11 03:38:17;;;;;;;1.50;1.20;;;;;;;20.30;100.00;100031.66;6122532;23;20013;-90
2023/07/11 03:40:43;;;;;;;1.45;0.82;;;;;;;20.31;100.00;100027.56;6121746;23;20018;-90
2023/07/11 03:43:09;;;;;;;1.23;0.73;;;;;;;20.32;100.00;100020.66;6124376;23;20064;-89
2023/07/11 03:45:34;;;;;;;0.52;0.45;;;;;;;20.32;100.00;100022.72;6100460;23;20017;-90
2023/07/11 03:48:00;;;;;;;0.90;0.85;;;;;;;20.33;100.00;100010.19;6149162;23;20028;-90
2023/07/11 03:50:25;;;;;;;0.73;0.68;;;;;;;20.30;100.00;100011.94;6123404;23;20014;-89
2023/07/11 03:52:50;;;;;;;1.42;1.02;;;;;;;20.37;100.00;100025.56;6098192;23;20017;-90
2023/07/11 03:55:16;;;;;;;0.95;0.88;;;;;;;20.33;100.00;100013.78;6122000;23;20440;-90
2023/07/11 03:57:42;;;;;;;0.43;0.43;;;;;;;20.42;100.00;100027.63;6123088;23;20498;-90
2023/07/11 04:00:09;;;;;;;0.88;0.80;;;;;;;20.36;100.00;100009.94;6076052;23;20036;-89
2023/07/11 04:02:40;;;;;;;1.15;1.00;;;;;;;20.39;100.00;100016.59;6124626;23;20018;-89
2023/07/11 04:05:06;;;;;;;1.15;0.90;;;;;;;20.39;100.00;100011.72;6124904;23;20013;-89
2023/07/11 04:07:32;;;;;;;1.08;0.98;;;;;;;20.48;100.00;100024.84;6097562;23;20508;-88
2023/07/11 04:09:57;;;;;;;5.10;1.50;;;;;;;20.50;100.00;100025.13;6149956;23;20076;-89
2023/07/11 04:12:23;;;;;;;1.00;0.98;;;;;;;20.52;100.00;100028.19;6148890;23;20083;-89
2023/07/11 04:14:48;;;;;;;1.60;1.50;;;;;;;20.60;100.00;100031.28;6150105;23;20013;-89
2023/07/11 04:17:14;;;;;;;2.97;1.48;;;;;;;20.61;100.00;100015.94;6149106;23;20016;-88
2023/07/11 04:19:39;;;;;;;2.25;2.05;;;;;;;20.75;100.00;100024.16;6149736;23;20002;-89
2023/07/11 04:22:05;;;;;;;0.98;0.98;;;;;;;20.78;100.00;100013.94;6098403;23;20014;-89
2023/07/11 04:24:30;;;;;;;2.55;1.85;;;;;;;20.79;100.00;100015.47;6123093;23;20437;-89
2023/07/11 04:26:56;;;;;;;1.38;1.17;;;;;;;20.90;100.00;100035.25;6075023;23;20012;-88
2023/07/11 04:29:22;;;;;;;0.90;0.77;;;;;;;20.90;100.00;100032.44;6149705;23;20104;-89
2023/07/11 04:31:47;;;;;;;1.90;1.55;;;;;;;21.06;100.00;100034.53;6123558;23;20033;-89
2023/07/11 04:34:13;;;;;;;2.88;1.55;;;;;;;21.15;100.00;100031.47;6124306;23;20017;-89
2023/07/11 04:36:38;;;;;;;2.75;0.77;;;;;;;21.20;100.00;100013.78;6149550;23;20017;-89
2023/07/11 04:39:04;;;;;;;2.13;1.42;;;;;;;21.35;100.00;100039.72;6145613;23;20018;-90
2023/07/11 04:41:29;;;;;;;1.33;0.93;;;;;;;21.34;100.00;100038.19;6123407;23;20262;-90
2023/07/11 04:43:55;;;;;;;1.40;1.30;;;;;;;21.29;100.00;100029.72;6123144;23;20085;-89
2023/07/11 04:46:20;;;;;;;3.50;1.02;;;;;;;21.39;100.00;100036.66;6150689;23;20014;-89
2023/07/11 04:48:46;;;;;;;1.30;1.20;;;;;;;21.49;100.00;100025.88;6148761;23;20009;-89
2023/07/11 04:51:12;;;;;;;0.60;0.60;;;;;;;21.63;100.00;100031.28;6122815;23;20463;-89
2023/07/11 04:53:39;;;;;;;1.50;1.40;;;;;;;21.77;100.00;100023.81;6091334;23;20049;-89
2023/07/11 04:56:07;;;;;;;1.48;1.10;;;;;;;21.83;100.00;100027.41;6122521;23;20013;-89
2023/07/11 04:58:34;;;;;;;1.48;1.35;;;;;;;21.91;100.00;100022.78;6146174;23;20103;-91
2023/07/11 05:01:03;;;;;;;1.20;1.10;;;;;;;22.07;100.00;100041.78;6121021;23;20439;-88
2023/07/11 05:03:29;;;;;;;1.00;1.00;;;;;;;22.15;100.00;100027.91;6118545;23;20013;-89
2023/07/11 05:05:55;;;;;;;1.27;1.08;;;;;;;22.24;100.00;100031.19;6121460;23;20014;-89
2023/07/11 05:08:21;;;;;;;1.45;1.35;;;;;;;22.22;100.00;100033.78;6120235;23;20084;-90
2023/07/11 05:11:02;;;;;;;1.48;1.27;;;;;;;22.38;100.00;100034.25;6120486;23;20025;-89
2023/07/11 05:13:33;;;;;;;3.58;1.98;;;;;;;22.49;100.00;100043.47;6073776;23;20017;-89
2023/07/11 05:16:04;;;;;;;2.10;1.90;;;;;;;22.59;100.00;100035.47;6120515;23;20023;-89
2023/07/11 05:18:29;;;;;;;1.75;1.35;;;;;;;22.60;100.00;100025.69;6119596;23;20097;-89
2023/07/11 05:20:57;;;;;;;2.08;1.52;;;;;;;22.77;100.00;100040.53;6121285;23;20037;-89
2023/07/11 05:23:25;;;;;;;0.98;0.95;;;;;;;22.80;100.00;100039.53;6096081;23;20018;-89
2023/07/11 05:25:51;;;;;;;1.98;1.88;;;;;;;22.93;100.00;100042.50;6147492;23;20006;-89
2023/07/11 05:28:16;;;;;;;1.00;0.93;;;;;;;23.03;100.00;100045.81;6145395;23;20021;-89
2023/07/11 05:30:42;;;;;;;1.25;1.10;;;;;;;23.12;100.00;100054.00;6147129;23;20024;-89
2023/07/11 05:33:08;;;;;;;2.78;1.55;;;;;;;23.12;100.00;100032.13;6148592;23;20024;-89
2023/07/11 05:35:41;;;;;;;2.30;1.55;;;;;;;23.25;100.00;100040.78;6120591;23;20021;-89
2023/07/11 05:38:06;;;;;;;1.65;1.33;;;;;;;23.41;100.00;100046.88;6119913;23;20343;-89
2023/07/11 05:40:32;;;;;;;3.65;1.27;;;;;;;23.54;100.00;100055.53;6147597;23;20013;-89
2023/07/11 05:42:58;;;;;;;1.77;1.58;;;;;;;23.64;100.00;100048.25;6123476;23;20009;-89
2023/07/11 05:45:24;;;;;;;0.85;0.68;;;;;;;23.76;100.00;100058.19;6149623;23;20456;-89
2023/07/11 05:47:49;;;;;;;1.10;1.02;;;;;;;23.87;100.00;100063.75;6147614;23;20037;-89
2023/07/11 05:50:15;;;;;;;1.67;1.33;;;;;;;23.89;100.00;100041.34;6122032;23;20024;-88
2023/07/11 05:52:40;;;;;;;1.50;1.25;;;;;;;24.11;100.00;100052.44;6116600;23;20021;-89
2023/07/11 05:55:06;;;;;;;2.15;1.85;;;;;;;24.29;100.00;100061.59;6121977;23;20016;-89
2023/07/11 05:57:32;;;;;;;2.70;1.92;;;;;;;24.52;100.00;100066.47;6150224;23;20064;-89
2023/07/11 05:59:57;;;;;;;1.02;1.02;;;;;;;24.66;100.00;100073.03;6150825;23;20226;-89
2023/07/11 06:02:23;;;;;;;1.25;1.05;;;;;;;24.73;100.00;100071.66;6124471;23;20093;-89
2023/07/11 06:04:48;;;;;;;1.40;1.30;;;;;;;24.76;100.00;100059.22;6125017;23;20040;-88
2023/07/11 06:07:14;;;;;;;1.63;1.35;;;;;;;25.00;100.00;100074.16;6150510;23;20088;-89
2023/07/11 06:09:39;;;;;;;1.33;1.23;;;;;;;24.90;100.00;100064.50;6151313;23;20049;-88
2023/07/11 06:12:05;;;;;;;1.63;1.17;;;;;;;25.03;100.00;100067.41;6151349;23;20452;-89
2023/07/11 06:14:31;;;;;;;1.33;1.23;;;;;;;25.12;100.00;100068.31;6151339;23;20039;-89
2023/07/11 06:16:56;;;;;;;2.10;1.25;;;;;;;25.28;100.00;100070.91;6124544;23;20037;-89
2023/07/11 06:19:22;;;;;;;1.23;0.93;;;;;;;25.42;100.00;100078.22;6152236;23;20357;-89
2023/07/11 06:21:47;;;;;;;1.42;1.15;;;;;;;25.48;100.00;100066.75;6163182;23;20092;-89
2023/07/11 06:24:13;;;;;;;1.42;1.33;;;;;;;25.48;100.00;100061.84;6126341;23;20029;-90
2023/07/11 06:26:38;;;;;;;2.67;1.83;;;;;;;25.57;100.00;100063.53;6151467;23;20432;-88
2023/07/11 06:29:04;;;;;;;1.63;1.52;;;;;;;25.80;100.00;100061.84;6124434;23;20045;-89
2023/07/11 06:31:29;;;;;;;1.88;1.77;;;;;;;25.79;99.55;100063.19;6150402;23;20005;-89
2023/07/11 06:33:56;;;;;;;2.08;1.50;;;;;;;25.66;100.00;100060.31;6146302;23;20014;-88
2023/07/11 06:36:21;;;;;;;3.17;2.53;;;;;;;25.76;100.00;100078.47;6123209;23;20013;-91
2023/07/11 06:38:47;;;;;;;1.58;1.20;;;;;;;25.84;100.00;100070.84;6120827;23;20016;-90
2023/07/11 06:41:12;;;;;;;1.75;1.48;;;;;;;26.04;100.00;100074.41;6123334;23;20013;-89
2023/07/11 06:43:38;;;;;;;0.88;0.82;;;;;;;26.05;98.35;100061.69;6146973;23;20479;-89
2023/07/11 06:46:04;;;;;;;1.58;1.48;;;;;;;26.13;97.49;100073.94;6148854;23;20022;-90
2023/07/11 06:48:30;;;;;;;1.27;1.15;;;;;;;26.13;98.31;100079.63;6147602;23;20100;-91
2023/07/11 06:50:58;;;;;;;0.80;0.77;;;;;;;26.13;97.64;100076.78;6122300;23;20096;-92
2023/07/11 06:53:27;;;;;;;1.40;1.13;;;;;;;26.18;98.01;100075.94;6097572;23;20029;-92
2023/07/11 06:55:53;;;;;;;2.00;1.33;;;;;;;26.38;97.12;100066.78;6122151;23;20029;-92
2023/07/11 06:58:19;;;;;;;1.05;0.88;;;;;;;26.50;95.63;100067.34;6148408;23;20009;-91
2023/07/11 07:00:51;;;;;;;1.52;1.42;;;;;;;26.83;93.65;100070.28;6121334;23;20024;-91
2023/07/11 07:03:17;;;;;;;1.52;1.42;;;;;;;27.01;90.16;100080.03;6148799;23;20063;-92
2023/07/11 07:06:02;;;;;;;1.60;1.50;;;;;;;27.08;87.58;100081.44;6125108;23;20532;-91
2023/07/11 07:08:28;;;;;;;2.83;1.58;;;;;;;26.95;87.11;100064.38;6124948;23;20309;-92
2023/07/11 07:10:53;;;;;;;0.55;0.50;;;;;;;26.93;89.21;100069.88;6151022;23;20010;-92
2023/07/11 07:13:20;;;;;;;0.93;0.85;;;;;;;26.98;88.39;100066.13;6124927;23;20027;-92
2023/07/11 07:15:53;;;;;;;11.23;1.98;;;;;;;27.24;87.49;100071.75;6100453;23;20005;-92
2023/07/11 07:18:19;;;;;;;2.90;2.30;;;;;;;27.34;86.04;100075.66;6100047;23;20475;-92
2023/07/11 07:20:46;;;;;;;1.80;1.65;;;;;;;27.53;86.67;100064.13;6125112;23;20108;-92
2023/07/11 07:23:12;;;;;;;1.42;1.33;;;;;;;27.77;85.93;100064.56;6149853;23;20061;-91
2023/07/11 07:25:37;;;;;;;1.50;1.38;;;;;;;28.01;82.33;100074.06;6125280;23;20013;-91
2023/07/11 07:28:03;;;;;;;0.82;0.77;;;;;;;27.98;82.02;100060.94;6124266;23;20005;-91
2023/07/11 07:30:29;;;;;;;1.63;1.52;;;;;;;28.11;81.06;100055.91;6099877;23;20013;-92
2023/07/11 07:32:54;;;;;;;2.22;1.70;;;;;;;28.38;81.44;100070.75;6124003;23;20515;-91
2023/07/11 07:35:20;;;;;;;1.55;1.45;;;;;;;28.53;81.38;100059.44;6124305;23;20325;-91
2023/07/11 07:37:46;;;;;;;2.50;2.20;;;;;;;28.69;80.56;100058.22;6150310;23;20075;-93
2023/07/11 07:40:11;;;;;;;1.70;1.60;;;;;;;28.93;72.69;100070.50;6150396;23;20005;-91
2023/07/11 07:42:37;;;;;;;2.58;2.13;;;;;;;28.90;69.78;100065.94;6100131;23;20186;-93
2023/07/11 07:45:04;;;;;;;2.70;1.55;;;;;;;29.03;71.22;100068.66;6124198;23;20100;-92
2023/07/11 07:47:29;;;;;;;1.13;1.02;;;;;;;29.14;70.00;100069.09;6123972;23;20013;-92
2023/07/11 07:49:55;;;;;;;1.65;0.93;;;;;;;29.20;68.12;100083.16;6150044;23;20515;-91
2023/07/11 07:52:21;;;;;;;1.60;1.15;;;;;;;29.36;66.38;100073.34;6150446;23;20010;-91
2023/07/11 07:54:46;;;;;;;2.63;1.42;;;;;;;29.54;67.39;100071.50;6150075;23;20083;-91
2023/07/11 07:57:12;;;;;;;2.20;1.17;;;;;;;29.64;65.65;100061.78;6150692;23;20144;-91
2023/07/11 07:59:37;;;;;;;1.05;0.98;;;;;;;29.86;64.59;100071.75;6151033;23;20062;-91
2023/07/11 08:02:03;;;;;;;1.92;1.73;;;;;;;29.85;65.62;100063.69;6149741;23;20001;-92
2023/07/11 08:04:30;;;;;;;2.80;2.60;;;;;;;30.04;66.19;100067.00;6151119;23;20072;-90
2023/07/11 08:06:56;;;;;;;4.35;2.90;;;;;;;30.09;64.38;100060.28;6124971;23;20036;-91
2023/07/11 08:09:21;;;;;;;3.00;1.38;;;;;;;30.18;62.97;100065.44;6149860;23;20307;-90
2023/07/11 08:11:47;;;;;;;1.52;1.15;;;;;;;30.35;63.96;100068.47;6124214;23;20009;-91
2023/07/11 08:14:12;;;;;;;1.73;1.30;;;;;;;30.44;61.80;100073.66;6124662;23;20009;-91
2023/07/11 08:16:39;;;;;;;1.73;1.13;;;;;;;30.57;58.46;100071.91;6150759;23;20013;-91
2023/07/11 08:19:06;;;;;;;2.20;1.98;;;;;;;30.65;51.61;100079.16;6124030;23;20013;-91
2023/07/11 08:21:33;;;;;;;3.72;1.42;;;;;;;30.60;54.63;100093.66;6150854;23;20017;-92
2023/07/11 08:23:58;;;;;;;2.25;1.42;;;;;;;30.73;57.40;100085.63;6098989;23;20017;-91
2023/07/11 08:26:24;;;;;;;1.52;1.42;;;;;;;30.75;56.52;100079.28;6100094;23;20029;-91
2023/07/11 08:28:51;;;;;;;1.50;1.40;;;;;;;30.85;55.98;100085.97;6151358;23;20013;-92
2023/07/11 08:31:16;;;;;;;1.30;1.20;;;;;;;30.82;56.42;100075.63;6154301;23;20024;-90
2023/07/11 08:33:42;;;;;;;1.95;1.30;;;;;;;30.81;53.73;100074.13;6154540;23;20017;-91
2023/07/11 08:36:08;;;;;;;1.20;0.80;;;;;;;31.00;53.99;100085.94;6128313;23;20486;-91
2023/07/11 08:38:33;;;;;;;1.10;1.05;;;;;;;31.11;53.00;100079.75;6104236;23;20432;-91
2023/07/11 08:41:11;;;;;;;3.72;1.35;;;;;;;31.26;47.33;100085.41;6105743;23;20084;-90
2023/07/11 08:43:37;;;;;;;2.20;1.75;;;;;;;31.46;48.91;100086.47;6124539;23;20021;-91
2023/07/11 08:46:06;;;;;;;2.17;1.77;;;;;;;31.67;47.41;100071.81;6124597;23;20013;-91
2023/07/11 08:48:53;;;;;;;0.73;0.70;;;;;;;31.70;47.71;100076.41;6123428;23;20017;-91
2023/07/11 08:51:31;;;;;;;2.13;1.92;;;;;;;31.59;47.04;100071.09;6100328;23;20017;-90
2023/07/11 08:54:19;;;;;;;1.48;1.17;;;;;;;31.61;46.22;100079.91;6123164;23;20014;-91
2023/07/11 08:56:47;;;;;;;1.52;0.90;;;;;;;31.71;47.83;100077.91;6149981;23;20021;-90
2023/07/11 08:59:25;;;;;;;0.98;0.98;;;;;;;31.80;49.33;100083.00;6124352;23;20463;-91
2023/07/11 09:02:02;;;;;;;1.05;0.95;;;;;;;31.96;46.08;100080.78;6124269;23;20017;-91
2023/07/11 09:04:29;;;;;;;1.25;1.15;;;;;;;32.04;44.71;100070.00;6099761;23;20018;-91
2023/07/11 09:06:59;;;;;;;1.88;1.20;;;;;;;32.00;43.43;100075.38;6126249;23;20503;-90
2023/07/11 09:09:25;;;;;;;1.38;1.15;;;;;;;31.99;44.80;100076.75;6151474;23;20026;-90
2023/07/11 09:11:53;;;;;;;1.05;1.05;;;;;;;32.09;44.88;100077.66;6126156;23;20002;-91
2023/07/11 09:14:27;;;;;;;1.55;1.45;;;;;;;32.32;45.58;100078.19;6152302;23;20010;-90
2023/07/11 09:17:01;;;;;;;1.50;1.38;;;;;;;32.37;41.75;100080.06;6151585;23;20013;-91
2023/07/11 09:19:59;;;;;;;1.55;1.42;;;;;;;32.54;42.27;100082.97;6151982;23;20032;-91
2023/07/11 09:22:33;;;;;;;1.58;1.48;;;;;;;32.63;43.82;100078.69;6149022;23;20028;-91
2023/07/11 09:25:12;;;;;;;0.98;0.98;;;;;;;32.60;43.26;100065.47;6126293;23;20084;-91
2023/07/11 09:27:44;;;;;;;2.22;1.52;;;;;;;32.59;41.89;100079.09;6129748;23;20420;-91
2023/07/11 09:30:16;;;;;;;1.55;1.17;;;;;;;32.59;41.33;100072.56;6133201;23;20451;-92
2023/07/11 09:32:42;;;;;;;1.33;1.25;;;;;;;32.79;42.17;100080.03;6151618;23;20017;-96
2023/07/11 09:35:23;;;;;;;2.63;1.67;;;;;;;32.79;40.70;100080.81;6154107;23;20006;-95
2023/07/11 09:37:53;;;;;;;1.27;1.17;;;;;;;32.63;41.06;100045.00;6100879;23;20028;-96
2023/07/11 09:40:26;;;;;;;1.55;1.45;;;;;;;33.00;41.41;100074.59;6098522;23;20040;-94
2023/07/11 09:42:54;;;;;;;2.70;1.45;;;;;;;32.79;40.76;100060.69;6172878;23;20064;-96
2023/07/11 09:45:27;;;;;;;1.25;1.10;;;;;;;32.93;41.97;100043.09;6112413;23;20009;-96
2023/07/11 09:48:09;;;;;;;2.75;1.48;;;;;;;33.23;41.67;100083.72;6109698;23;20480;-96
2023/07/11 09:50:59;;;;;;;1.75;1.27;;;;;;;33.10;40.27;100080.41;6112583;23;20009;-92
2023/07/11 09:53:26;;;;;;;2.05;1.27;;;;;;;33.04;40.78;100077.06;6124773;23;20099;-91
2023/07/11 09:55:53;;;;;;;1.23;1.10;;;;;;;32.71;40.96;100073.63;6126111;23;20014;-91
2023/07/11 09:58:19;;;;;;;2.30;1.63;;;;;;;32.74;41.81;100072.44;6125318;23;20017;-92
2023/07/11 10:00:51;;;;;;;1.75;1.58;;;;;;;33.12;42.62;100084.19;6126149;23;20442;-91
2023/07/11 10:03:25;;;;;;;1.35;1.25;;;;;;;33.33;42.44;100080.13;6124270;23;20018;-92
2023/07/11 10:05:52;;;;;;;1.77;1.00;;;;;;;33.36;42.75;100078.97;6101067;23;20040;-91
2023/07/11 10:08:21;;;;;;;0.75;0.75;;;;;;;33.36;42.00;100078.97;6100223;23;20116;-91
2023/07/11 10:10:54;;;;;;;1.55;1.40;;;;;;;33.59;42.35;100067.88;6125537;23;20014;-91
2023/07/11 10:13:21;;;;;;;1.38;1.27;;;;;;;33.69;41.46;100077.31;6151459;23;20436;-90
2023/07/11 10:15:48;;;;;;;1.55;1.45;;;;;;;33.67;40.05;100074.31;6125084;23;20005;-92
2023/07/11 10:18:20;;;;;;;1.40;1.30;;;;;;;33.59;40.12;100068.63;6123949;23;20072;-91
2023/07/11 10:20:48;;;;;;;1.02;0.90;;;;;;;33.54;39.25;100071.78;6122299;23;20045;-91
2023/07/11 10:23:14;;;;;;;2.05;1.70;;;;;;;33.50;40.39;100068.59;6122723;23;20006;-91
2023/07/11 10:25:43;;;;;;;1.17;1.08;;;;;;;33.52;40.78;100068.75;6122215;23;20024;-91
2023/07/11 10:28:31;;;;;;;3.03;1.90;;;;;;;33.36;40.38;100061.72;6149833;23;20013;-91
2023/07/11 10:31:01;;;;;;;3.28;1.27;;;;;;;33.24;40.92;100059.34;6149103;23;20017;-92
2023/07/11 10:33:30;;;;;;;1.40;1.20;;;;;;;33.43;40.40;100066.59;6121951;23;20017;-91
2023/07/11 10:36:03;;;;;;;2.38;1.88;;;;;;;33.31;41.07;100042.59;6098461;23;20474;-91
2023/07/11 10:38:51;;;;;;;2.15;1.65;;;;;;;33.42;41.18;100054.31;6097648;23;20017;-91
2023/07/11 10:41:22;;;;;;;0.75;0.75;;;;;;;33.83;40.46;100063.31;6123560;23;20091;-92
2023/07/11 10:43:51;;;;;;;1.23;1.02;;;;;;;33.79;39.59;100063.75;6148711;23;20466;-90
2023/07/11 10:46:41;;;;;;;1.00;1.00;;;;;;;33.82;37.58;100056.78;6123583;23;20013;-91
2023/07/11 10:49:15;;;;;;;1.65;1.33;;;;;;;34.03;40.03;100054.16;6122747;23;20348;-91
2023/07/11 10:51:52;;;;;;;1.23;1.15;;;;;;;34.22;39.03;100058.44;6122149;23;20052;-91
2023/07/11 10:54:24;;;;;;;1.55;1.45;;;;;;;33.87;37.90;100052.88;6122534;23;20013;-90
2023/07/11 10:56:56;;;;;;;2.95;1.55;;;;;;;33.74;38.24;100061.91;6122808;23;20021;-91
2023/07/11 10:59:23;;;;;;;3.07;1.43;;;;;;;33.83;38.10;100046.81;6122330;23;20017;-91
2023/07/11 11:02:02;;;;;;;1.10;0.88;;;;;;;34.05;39.52;100057.16;6124594;23;20017;-92
2023/07/11 11:04:43;;;;;;;1.15;1.02;;;;;;;34.31;39.42;100054.84;6125011;23;20025;-91
2023/07/11 11:07:16;;;;;;;5.82;1.33;;;;;;;34.09;41.00;100048.84;6150410;23;20344;-90
2023/07/11 11:10:33;;;;;;;1.35;1.13;;;;;;;34.11;39.55;100046.13;6150769;23;20080;-91
2023/07/11 11:13:26;;;;;;;1.75;1.55;;;;;;;34.22;39.79;100047.69;6118087;23;20018;-92
2023/07/11 11:16:01;;;;;;;1.67;1.48;;;;;;;34.48;39.22;100046.06;6146670;23;20025;-91
2023/07/11 11:19:18;;;;;;;1.85;1.75;;;;;;;34.62;38.51;100045.00;6075842;23;20021;-91
2023/07/11 11:22:02;;;;;;;1.23;0.77;;;;;;;34.62;38.56;100044.25;6060389;23;20027;-91
2023/07/11 11:24:31;;;;;;;1.40;1.30;;;;;;;34.70;38.33;100050.63;6116818;23;20021;-91
2023/07/11 11:27:25;;;;;;;1.48;1.10;;;;;;;34.76;38.64;100030.19;6150332;23;20328;-91
2023/07/11 11:30:12;;;;;;;2.50;1.98;;;;;;;34.94;37.85;100034.41;6123860;23;20441;-91